sensor_id;sensor_type;location;lat;lon;timestamp;pressure;altitude;pressure_sealevel;temperature;humidity
66430;BME280;53242;51.694;10.006;2022-08-23T00:00:36;99597.78;;;21.32;50.58
66430;BME280;53242;51.694;10.006;2022-08-23T00:02:59;99597.16;;;21.10;50.99
66430;BME280;53242;51.694;10.006;2022-08-23T00:05:21;99600.69;;;21.15;51.01
66430;BME280;53242;51.694;10.006;2022-08-23T00:07:44;99593.44;;;21.16;51.17
66430;BME280;53242;51.694;10.006;2022-08-23T00:10:09;99596.91;;;21.11;51.36
66430;BME280;53242;51.694;10.006;2022-08-23T00:12:32;99597.41;;;21.08;51.43
66430;BME280;53242;51.694;10.006;2022-08-23T00:14:54;99603.66;;;21.19;50.94
66430;BME280;53242;51.694;10.006;2022-08-23T00:17:17;99599.63;;;21.16;50.99
66430;BME280;53242;51.694;10.006;2022-08-23T00:19:40;99604.69;;;21.08;51.15
66430;BME280;53242;51.694;10.006;2022-08-23T00:22:04;99597.94;;;21.00;51.52
66430;BME280;53242;51.694;10.006;2022-08-23T00:24:26;99600.38;;;21.07;51.28
66430;BME280;53242;51.694;10.006;2022-08-23T00:29:35;99591.75;;;20.99;51.38
66430;BME280;53242;51.694;10.006;2022-08-23T00:31:58;99593.63;;;20.99;51.47
66430;BME280;53242;51.694;10.006;2022-08-23T00:34:21;99584.53;;;21.00;51.33
66430;BME280;53242;51.694;10.006;2022-08-23T00:36:44;99587.19;;;21.00;51.15
66430;BME280;53242;51.694;10.006;2022-08-23T00:39:06;99591.72;;;20.94;51.49
66430;BME280;53242;51.694;10.006;2022-08-23T00:41:30;99591.97;;;20.88;51.41
66430;BME280;53242;51.694;10.006;2022-08-23T00:43:53;99591.44;;;20.85;51.69
66430;BME280;53242;51.694;10.006;2022-08-23T00:46:47;99591.16;;;20.87;51.88
66430;BME280;53242;51.694;10.006;2022-08-23T00:49:30;99583.88;;;20.82;51.83
66430;BME280;53242;51.694;10.006;2022-08-23T00:52:10;99593.81;;;20.82;51.93
66430;BME280;53242;51.694;10.006;2022-08-23T00:54:36;99592.19;;;20.81;52.09
66430;BME280;53242;51.694;10.006;2022-08-23T00:57:04;99594.31;;;20.79;52.03
66430;BME280;53242;51.694;10.006;2022-08-23T00:59:27;99585.78;;;20.87;51.76
66430;BME280;53242;51.694;10.006;2022-08-23T01:01:50;99587.91;;;20.85;52.01
66430;BME280;53242;51.694;10.006;2022-08-23T01:04:13;99590.34;;;20.86;51.85
66430;BME280;53242;51.694;10.006;2022-08-23T01:06:41;99590.06;;;20.83;52.00
66430;BME280;53242;51.694;10.006;2022-08-23T01:09:14;99592.50;;;20.84;51.95
66430;BME280;53242;51.694;10.006;2022-08-23T01:11:47;99593.56;;;20.83;52.04
66430;BME280;53242;51.694;10.006;2022-08-23T01:14:15;99598.13;;;20.83;52.01
66430;BME280;53242;51.694;10.006;2022-08-23T01:16:46;99591.09;;;20.77;52.26
66430;BME280;53242;51.694;10.006;2022-08-23T01:22:20;99586.28;;;20.79;52.12
66430;BME280;53242;51.694;10.006;2022-08-23T01:24:47;99589.44;;;20.70;52.44
66430;BME280;53242;51.694;10.006;2022-08-23T01:27:11;99586.50;;;20.72;52.28
66430;BME280;53242;51.694;10.006;2022-08-23T01:29:34;99595.31;;;20.67;52.49
66430;BME280;53242;51.694;10.006;2022-08-23T01:31:56;99600.91;;;20.66;52.42
66430;BME280;53242;51.694;10.006;2022-08-23T01:34:24;99593.16;;;20.69;52.14
66430;BME280;53242;51.694;10.006;2022-08-23T01:36:47;99595.56;;;20.66;52.19
66430;BME280;53242;51.694;10.006;2022-08-23T01:39:10;99596.63;;;20.65;52.46
66430;BME280;53242;51.694;10.006;2022-08-23T01:41:33;99593.97;;;20.65;52.44
66430;BME280;53242;51.694;10.006;2022-08-23T01:43:56;99594.50;;;20.67;52.28
66430;BME280;53242;51.694;10.006;2022-08-23T01:46:22;99599.06;;;20.66;52.16
66430;BME280;53242;51.694;10.006;2022-08-23T01:48:47;99590.69;;;20.58;52.37
66430;BME280;53242;51.694;10.006;2022-08-23T01:51:11;99597.09;;;20.57;52.65
66430;BME280;53242;51.694;10.006;2022-08-23T01:53:34;99598.94;;;20.46;52.71
66430;BME280;53242;51.694;10.006;2022-08-23T01:55:57;99599.38;;;20.37;52.95
66430;BME280;53242;51.694;10.006;2022-08-23T01:58:20;99592.63;;;20.30;53.29
66430;BME280;53242;51.694;10.006;2022-08-23T02:00:43;99597.19;;;20.29;53.25
66430;BME280;53242;51.694;10.006;2022-08-23T02:03:09;99603.16;;;20.36;52.95
66430;BME280;53242;51.694;10.006;2022-08-23T02:05:32;99599.25;;;20.22;53.43
66430;BME280;53242;51.694;10.006;2022-08-23T02:07:58;99597.91;;;20.19;53.42
66430;BME280;53242;51.694;10.006;2022-08-23T02:10:45;99609.81;;;20.01;53.97
66430;BME280;53242;51.694;10.006;2022-08-23T02:13:08;99608.03;;;20.12;53.72
66430;BME280;53242;51.694;10.006;2022-08-23T02:15:31;99608.56;;;20.14;53.63
66430;BME280;53242;51.694;10.006;2022-08-23T02:17:53;99614.50;;;20.16;53.29
66430;BME280;53242;51.694;10.006;2022-08-23T02:20:16;99615.31;;;20.17;53.53
66430;BME280;53242;51.694;10.006;2022-08-23T02:22:40;99608.09;;;20.17;53.42
66430;BME280;53242;51.694;10.006;2022-08-23T02:25:03;99611.81;;;20.16;53.50
66430;BME280;53242;51.694;10.006;2022-08-23T02:27:26;99615.22;;;20.07;53.76
66430;BME280;53242;51.694;10.006;2022-08-23T02:29:49;99624.81;;;20.02;53.91
66430;BME280;53242;51.694;10.006;2022-08-23T02:32:14;99629.59;;;19.95;54.17
66430;BME280;53242;51.694;10.006;2022-08-23T02:34:38;99626.41;;;19.98;53.93
66430;BME280;53242;51.694;10.006;2022-08-23T02:37:01;99636.00;;;19.94;54.32
66430;BME280;53242;51.694;10.006;2022-08-23T02:39:24;99638.38;;;19.91;54.45
66430;BME280;53242;51.694;10.006;2022-08-23T02:41:47;99638.06;;;19.87;54.47
66430;BME280;53242;51.694;10.006;2022-08-23T02:44:10;99646.66;;;19.89;54.42
66430;BME280;53242;51.694;10.006;2022-08-23T02:46:34;99646.88;;;19.82;54.71
66430;BME280;53242;51.694;10.006;2022-08-23T02:48:57;99648.38;;;19.78;54.71
66430;BME280;53242;51.694;10.006;2022-08-23T02:51:22;99642.81;;;19.80;54.78
66430;BME280;53242;51.694;10.006;2022-08-23T02:53:44;99645.47;;;19.80;54.73
66430;BME280;53242;51.694;10.006;2022-08-23T02:56:08;99650.22;;;19.72;55.07
66430;BME280;53242;51.694;10.006;2022-08-23T02:58:31;99644.75;;;19.62;55.51
66430;BME280;53242;51.694;10.006;2022-08-23T03:00:54;99645.91;;;19.71;55.21
66430;BME280;53242;51.694;10.006;2022-08-23T03:03:19;99644.84;;;19.72;55.34
66430;BME280;53242;51.694;10.006;2022-08-23T03:05:42;99646.72;;;19.50;56.37
66430;BME280;53242;51.694;10.006;2022-08-23T03:08:05;99650.91;;;19.41;56.08
66430;BME280;53242;51.694;10.006;2022-08-23T03:10:33;99654.03;;;19.54;55.97
66430;BME280;53242;51.694;10.006;2022-08-23T03:12:57;99649.78;;;19.59;55.74
66430;BME280;53242;51.694;10.006;2022-08-23T03:15:20;99643.38;;;19.60;55.95
66430;BME280;53242;51.694;10.006;2022-08-23T03:17:43;99644.00;;;19.67;55.80
66430;BME280;53242;51.694;10.006;2022-08-23T03:20:06;99638.03;;;19.60;55.72
66430;BME280;53242;51.694;10.006;2022-08-23T03:22:32;99638.22;;;19.53;56.00
66430;BME280;53242;51.694;10.006;2022-08-23T03:24:55;99646.19;;;19.48;56.17
66430;BME280;53242;51.694;10.006;2022-08-23T03:27:25;99640.34;;;19.29;56.93
66430;BME280;53242;51.694;10.006;2022-08-23T03:29:47;99649.53;;;19.16;57.42
66430;BME280;53242;51.694;10.006;2022-08-23T03:32:10;99648.50;;;19.39;56.72
66430;BME280;53242;51.694;10.006;2022-08-23T03:34:34;99648.75;;;19.37;56.58
66430;BME280;53242;51.694;10.006;2022-08-23T03:36:57;99645.00;;;19.38;56.56
66430;BME280;53242;51.694;10.006;2022-08-23T03:39:20;99640.00;;;19.25;56.94
66430;BME280;53242;51.694;10.006;2022-08-23T03:41:42;99642.94;;;19.23;57.29
66430;BME280;53242;51.694;10.006;2022-08-23T03:44:05;99641.81;;;19.19;57.45
66430;BME280;53242;51.694;10.006;2022-08-23T03:46:30;99643.19;;;19.22;57.15
66430;BME280;53242;51.694;10.006;2022-08-23T03:48:57;99641.44;;;19.11;57.83
66430;BME280;53242;51.694;10.006;2022-08-23T03:51:22;99641.81;;;19.19;57.49
66430;BME280;53242;51.694;10.006;2022-08-23T03:53:45;99643.59;;;19.14;57.33
66430;BME280;53242;51.694;10.006;2022-08-23T03:56:09;99646.72;;;19.05;57.65
66430;BME280;53242;51.694;10.006;2022-08-23T03:58:31;99654.59;;;18.95;58.15
66430;BME280;53242;51.694;10.006;2022-08-23T04:00:53;99654.03;;;18.93;58.16
66430;BME280;53242;51.694;10.006;2022-08-23T04:03:16;99652.66;;;18.90;58.22
66430;BME280;53242;51.694;10.006;2022-08-23T04:06:11;99652.25;;;18.82;58.21
66430;BME280;53242;51.694;10.006;2022-08-23T04:08:33;99649.25;;;18.78;58.69
66430;BME280;53242;51.694;10.006;2022-08-23T04:10:57;99654.59;;;18.78;58.58
66430;BME280;53242;51.694;10.006;2022-08-23T04:13:19;99650.41;;;18.65;59.02
66430;BME280;53242;51.694;10.006;2022-08-23T04:15:42;99658.75;;;18.69;59.10
66430;BME280;53242;51.694;10.006;2022-08-23T04:18:04;99659.72;;;18.63;59.26
66430;BME280;53242;51.694;10.006;2022-08-23T04:20:27;99660.44;;;18.58;59.48
66430;BME280;53242;51.694;10.006;2022-08-23T04:22:55;99660.94;;;18.55;59.57
66430;BME280;53242;51.694;10.006;2022-08-23T04:25:20;99663.59;;;18.55;59.60
66430;BME280;53242;51.694;10.006;2022-08-23T04:27:43;99669.91;;;18.66;59.04
66430;BME280;53242;51.694;10.006;2022-08-23T04:30:06;99661.09;;;18.65;59.06
66430;BME280;53242;51.694;10.006;2022-08-23T04:32:29;99666.81;;;18.57;59.50
66430;BME280;53242;51.694;10.006;2022-08-23T04:34:53;99661.56;;;18.62;59.34
66430;BME280;53242;51.694;10.006;2022-08-23T04:37:16;99669.56;;;18.62;59.28
66430;BME280;53242;51.694;10.006;2022-08-23T04:39:39;99666.00;;;18.73;58.84
66430;BME280;53242;51.694;10.006;2022-08-23T04:42:25;99666.53;;;18.53;59.41
66430;BME280;53242;51.694;10.006;2022-08-23T04:44:48;99667.22;;;18.66;59.01
66430;BME280;53242;51.694;10.006;2022-08-23T04:47:11;99666.09;;;18.79;58.69
66430;BME280;53242;51.694;10.006;2022-08-23T04:49:34;99676.63;;;18.85;58.49
66430;BME280;53242;51.694;10.006;2022-08-23T04:51:57;99671.03;;;18.87;58.30
66430;BME280;53242;51.694;10.006;2022-08-23T04:54:19;99677.03;;;18.77;58.56
66430;BME280;53242;51.694;10.006;2022-08-23T04:57:00;99682.53;;;18.87;58.12
66430;BME280;53242;51.694;10.006;2022-08-23T04:59:23;99683.44;;;18.93;58.02
66430;BME280;53242;51.694;10.006;2022-08-23T05:01:45;99693.50;;;19.03;57.73
66430;BME280;53242;51.694;10.006;2022-08-23T05:04:08;99689.94;;;18.97;58.21
66430;BME280;53242;51.694;10.006;2022-08-23T05:06:34;99690.03;;;19.02;57.89
66430;BME280;53242;51.694;10.006;2022-08-23T05:08:57;99691.47;;;19.10;57.65
66430;BME280;53242;51.694;10.006;2022-08-23T05:11:19;99689.59;;;19.11;57.59
66430;BME280;53242;51.694;10.006;2022-08-23T05:13:43;99694.69;;;19.12;57.42
66430;BME280;53242;51.694;10.006;2022-08-23T05:16:06;99692.16;;;19.22;57.18
66430;BME280;53242;51.694;10.006;2022-08-23T05:18:34;99700.13;;;19.17;57.38
66430;BME280;53242;51.694;10.006;2022-08-23T05:20:56;99698.41;;;19.11;57.85
66430;BME280;53242;51.694;10.006;2022-08-23T05:23:19;99696.13;;;19.20;57.54
66430;BME280;53242;51.694;10.006;2022-08-23T05:25:46;99706.50;;;19.33;57.15
66430;BME280;53242;51.694;10.006;2022-08-23T05:28:15;99706.84;;;19.42;56.86
66430;BME280;53242;51.694;10.006;2022-08-23T05:30:39;99709.47;;;19.37;56.99
66430;BME280;53242;51.694;10.006;2022-08-23T05:33:01;99700.53;;;19.48;56.88
66430;BME280;53242;51.694;10.006;2022-08-23T05:35:24;99709.00;;;19.40;57.12
66430;BME280;53242;51.694;10.006;2022-08-23T05:37:49;99714.72;;;19.49;56.65
66430;BME280;53242;51.694;10.006;2022-08-23T05:40:13;99714.59;;;19.38;57.18
66430;BME280;53242;51.694;10.006;2022-08-23T05:42:48;99717.81;;;19.41;56.78
66430;BME280;53242;51.694;10.006;2022-08-23T05:45:11;99715.59;;;19.54;56.40
66430;BME280;53242;51.694;10.006;2022-08-23T05:47:34;99711.59;;;19.57;56.36
66430;BME280;53242;51.694;10.006;2022-08-23T05:50:17;99716.78;;;19.64;55.96
66430;BME280;53242;51.694;10.006;2022-08-23T05:52:39;99718.59;;;19.58;56.13
66430;BME280;53242;51.694;10.006;2022-08-23T05:55:03;99715.53;;;19.71;55.66
66430;BME280;53242;51.694;10.006;2022-08-23T05:57:46;99719.88;;;19.78;55.42
66430;BME280;53242;51.694;10.006;2022-08-23T06:00:10;99722.69;;;19.66;55.60
66430;BME280;53242;51.694;10.006;2022-08-23T06:02:45;99728.84;;;19.66;55.51
66430;BME280;53242;51.694;10.006;2022-08-23T06:05:07;99727.50;;;19.86;55.21
66430;BME280;53242;51.694;10.006;2022-08-23T06:07:33;99729.81;;;19.99;54.95
66430;BME280;53242;51.694;10.006;2022-08-23T06:09:55;99733.78;;;20.19;54.52
66430;BME280;53242;51.694;10.006;2022-08-23T06:12:18;99734.09;;;20.23;54.17
66430;BME280;53242;51.694;10.006;2022-08-23T06:14:40;99727.59;;;20.46;53.69
66430;BME280;53242;51.694;10.006;2022-08-23T06:17:03;99728.66;;;20.45;53.85
66430;BME280;53242;51.694;10.006;2022-08-23T06:19:26;99732.13;;;20.45;53.82
66430;BME280;53242;51.694;10.006;2022-08-23T06:22:06;99735.03;;;20.38;53.68
66430;BME280;53242;51.694;10.006;2022-08-23T06:24:34;99727.66;;;20.51;53.86
66430;BME280;53242;51.694;10.006;2022-08-23T06:27:06;99731.63;;;20.76;53.22
66430;BME280;53242;51.694;10.006;2022-08-23T06:29:29;99729.94;;;20.69;53.28
66430;BME280;53242;51.694;10.006;2022-08-23T06:32:13;99733.06;;;20.89;52.53
66430;BME280;53242;51.694;10.006;2022-08-23T06:34:47;99732.50;;;20.86;52.61
66430;BME280;53242;51.694;10.006;2022-08-23T06:37:17;99726.16;;;20.98;52.16
66430;BME280;53242;51.694;10.006;2022-08-23T06:39:58;99728.88;;;21.03;52.10
66430;BME280;53242;51.694;10.006;2022-08-23T06:42:59;99737.06;;;20.86;52.00
66430;BME280;53242;51.694;10.006;2022-08-23T06:45:32;99737.13;;;20.91;51.50
66430;BME280;53242;51.694;10.006;2022-08-23T06:47:55;99734.50;;;20.69;51.76
66430;BME280;53242;51.694;10.006;2022-08-23T06:50:17;99740.63;;;20.64;51.71
66430;BME280;53242;51.694;10.006;2022-08-23T06:53:06;99737.56;;;20.78;50.73
66430;BME280;53242;51.694;10.006;2022-08-23T06:55:52;99735.16;;;20.81;50.96
66430;BME280;53242;51.694;10.006;2022-08-23T06:58:42;99735.56;;;21.00;50.47
66430;BME280;53242;51.694;10.006;2022-08-23T07:04:05;99749.28;;;21.04;50.08
66430;BME280;53242;51.694;10.006;2022-08-23T07:07:01;99742.38;;;21.13;49.60
66430;BME280;53242;51.694;10.006;2022-08-23T07:09:24;99737.31;;;21.22;49.62
66430;BME280;53242;51.694;10.006;2022-08-23T07:11:47;99741.97;;;21.37;49.50
66430;BME280;53242;51.694;10.006;2022-08-23T07:14:13;99740.13;;;21.43;49.30
66430;BME280;53242;51.694;10.006;2022-08-23T07:16:38;99735.13;;;21.57;48.83
66430;BME280;53242;51.694;10.006;2022-08-23T07:19:03;99737.72;;;21.46;48.99
66430;BME280;53242;51.694;10.006;2022-08-23T07:21:26;99743.78;;;21.69;48.49
66430;BME280;53242;51.694;10.006;2022-08-23T07:23:49;99740.00;;;21.70;48.18
66430;BME280;53242;51.694;10.006;2022-08-23T07:26:13;99739.22;;;21.70;47.89
66430;BME280;53242;51.694;10.006;2022-08-23T07:28:37;99740.09;;;21.91;47.62
66430;BME280;53242;51.694;10.006;2022-08-23T07:31:11;99744.63;;;21.80;47.11
66430;BME280;53242;51.694;10.006;2022-08-23T07:33:34;99731.78;;;21.87;47.25
66430;BME280;53242;51.694;10.006;2022-08-23T07:36:08;99740.34;;;21.84;47.35
66430;BME280;53242;51.694;10.006;2022-08-23T07:38:31;99745.19;;;21.82;46.96
66430;BME280;53242;51.694;10.006;2022-08-23T07:40:54;99742.81;;;22.06;46.66
66430;BME280;53242;51.694;10.006;2022-08-23T07:43:17;99744.22;;;22.24;46.61
66430;BME280;53242;51.694;10.006;2022-08-23T07:45:39;99750.97;;;22.37;46.40
66430;BME280;53242;51.694;10.006;2022-08-23T07:48:05;99743.75;;;22.48;45.92
66430;BME280;53242;51.694;10.006;2022-08-23T07:50:34;99754.78;;;22.46;46.48
66430;BME280;53242;51.694;10.006;2022-08-23T07:52:58;99746.97;;;22.65;45.92
66430;BME280;53242;51.694;10.006;2022-08-23T07:55:22;99751.84;;;22.63;45.71
66430;BME280;53242;51.694;10.006;2022-08-23T07:58:03;99752.63;;;22.74;46.24
66430;BME280;53242;51.694;10.006;2022-08-23T08:00:44;99758.84;;;22.80;45.85
66430;BME280;53242;51.694;10.006;2022-08-23T08:03:27;99753.69;;;22.68;46.14
66430;BME280;53242;51.694;10.006;2022-08-23T08:06:13;99749.41;;;22.98;45.60
66430;BME280;53242;51.694;10.006;2022-08-23T08:08:38;99750.47;;;22.97;45.91
66430;BME280;53242;51.694;10.006;2022-08-23T08:11:02;99760.19;;;23.19;45.17
66430;BME280;53242;51.694;10.006;2022-08-23T08:13:24;99759.06;;;23.25;45.26
66430;BME280;53242;51.694;10.006;2022-08-23T08:15:47;99763.66;;;23.14;45.20
66430;BME280;53242;51.694;10.006;2022-08-23T08:18:11;99765.56;;;23.29;44.71
66430;BME280;53242;51.694;10.006;2022-08-23T08:20:54;99759.06;;;23.35;44.74
66430;BME280;53242;51.694;10.006;2022-08-23T08:23:42;99765.00;;;23.22;45.12
66430;BME280;53242;51.694;10.006;2022-08-23T08:26:24;99767.69;;;23.37;44.39
66430;BME280;53242;51.694;10.006;2022-08-23T08:28:50;99765.44;;;23.65;44.02
66430;BME280;53242;51.694;10.006;2022-08-23T08:31:13;99770.59;;;23.51;43.59
66430;BME280;53242;51.694;10.006;2022-08-23T08:33:36;99764.88;;;23.73;43.56
66430;BME280;53242;51.694;10.006;2022-08-23T08:36:00;99773.97;;;23.88;43.82
66430;BME280;53242;51.694;10.006;2022-08-23T08:38:22;99764.25;;;24.02;43.37
66430;BME280;53242;51.694;10.006;2022-08-23T08:40:49;99767.50;;;23.89;42.37
66430;BME280;53242;51.694;10.006;2022-08-23T08:43:29;99768.88;;;23.81;41.83
66430;BME280;53242;51.694;10.006;2022-08-23T08:46:24;99762.41;;;23.92;41.79
66430;BME280;53242;51.694;10.006;2022-08-23T08:48:53;99768.03;;;24.01;41.50
66430;BME280;53242;51.694;10.006;2022-08-23T08:51:40;99759.88;;;24.11;41.04
66430;BME280;53242;51.694;10.006;2022-08-23T08:54:08;99759.88;;;24.11;41.10
66430;BME280;53242;51.694;10.006;2022-08-23T08:56:39;99755.16;;;24.33;41.06
66430;BME280;53242;51.694;10.006;2022-08-23T08:59:26;99762.81;;;24.55;40.96
66430;BME280;53242;51.694;10.006;2022-08-23T09:01:51;99761.19;;;24.59;41.22
66430;BME280;53242;51.694;10.006;2022-08-23T09:04:20;99758.47;;;24.69;40.92
66430;BME280;53242;51.694;10.006;2022-08-23T09:07:12;99762.66;;;24.81;40.84
66430;BME280;53242;51.694;10.006;2022-08-23T09:20:01;99759.19;;;25.09;40.20
66430;BME280;53242;51.694;10.006;2022-08-23T09:22:35;99751.38;;;25.08;39.30
66430;BME280;53242;51.694;10.006;2022-08-23T09:25:03;99757.66;;;25.27;39.18
66430;BME280;53242;51.694;10.006;2022-08-23T09:27:40;99757.28;;;25.39;38.70
66430;BME280;53242;51.694;10.006;2022-08-23T09:30:05;99751.28;;;25.42;38.82
66430;BME280;53242;51.694;10.006;2022-08-23T09:35:11;99746.75;;;25.62;37.99
66430;BME280;53242;51.694;10.006;2022-08-23T09:40:47;99743.88;;;25.53;37.37
66430;BME280;53242;51.694;10.006;2022-08-23T09:43:17;99744.00;;;25.67;37.44
66430;BME280;53242;51.694;10.006;2022-08-23T09:48:12;99739.91;;;25.70;37.51
66430;BME280;53242;51.694;10.006;2022-08-23T09:50:49;99744.78;;;25.68;36.20
66430;BME280;53242;51.694;10.006;2022-08-23T09:53:14;99731.44;;;25.76;36.60
66430;BME280;53242;51.694;10.006;2022-08-23T09:55:50;99739.03;;;25.74;36.87
66430;BME280;53242;51.694;10.006;2022-08-23T09:58:35;99729.75;;;25.81;36.78
66430;BME280;53242;51.694;10.006;2022-08-23T10:01:17;99727.41;;;25.74;36.75
66430;BME280;53242;51.694;10.006;2022-08-23T10:03:46;99731.31;;;25.87;37.03
66430;BME280;53242;51.694;10.006;2022-08-23T10:06:30;99722.00;;;25.74;36.36
66430;BME280;53242;51.694;10.006;2022-08-23T10:08:59;99722.41;;;26.05;36.66
66430;BME280;53242;51.694;10.006;2022-08-23T10:11:30;99728.44;;;26.21;36.34
66430;BME280;53242;51.694;10.006;2022-08-23T10:13:54;99727.47;;;26.31;36.09
66430;BME280;53242;51.694;10.006;2022-08-23T10:16:25;99726.75;;;26.25;35.52
66430;BME280;53242;51.694;10.006;2022-08-23T10:21:48;99726.72;;;26.45;35.57
66430;BME280;53242;51.694;10.006;2022-08-23T10:24:23;99716.84;;;26.35;35.06
66430;BME280;53242;51.694;10.006;2022-08-23T10:27:19;99722.63;;;26.47;34.28
66430;BME280;53242;51.694;10.006;2022-08-23T10:30:07;99717.75;;;26.63;34.54
66430;BME280;53242;51.694;10.006;2022-08-23T10:32:48;99708.53;;;26.83;33.59
66430;BME280;53242;51.694;10.006;2022-08-23T10:52:59;99711.88;;;27.36;33.39
66430;BME280;53242;51.694;10.006;2022-08-23T10:55:28;99708.16;;;27.32;32.86
66430;BME280;53242;51.694;10.006;2022-08-23T10:58:07;99706.16;;;27.37;32.69
66430;BME280;53242;51.694;10.006;2022-08-23T11:00:33;99705.34;;;27.51;32.59
66430;BME280;53242;51.694;10.006;2022-08-23T11:03:26;99704.78;;;27.54;31.46
66430;BME280;53242;51.694;10.006;2022-08-23T11:06:22;99694.94;;;27.44;31.07
66430;BME280;53242;51.694;10.006;2022-08-23T11:08:47;99696.91;;;27.52;32.03
66430;BME280;53242;51.694;10.006;2022-08-23T11:11:37;99698.91;;;27.33;31.63
66430;BME280;53242;51.694;10.006;2022-08-23T11:14:00;99692.72;;;27.46;31.24
66430;BME280;53242;51.694;10.006;2022-08-23T11:16:28;99694.72;;;27.68;31.15
66430;BME280;53242;51.694;10.006;2022-08-23T11:18:52;99698.22;;;27.69;30.78
66430;BME280;53242;51.694;10.006;2022-08-23T11:28:49;99688.28;;;28.01;30.64
66430;BME280;53242;51.694;10.006;2022-08-23T11:31:26;99687.06;;;28.21;29.63
66430;BME280;53242;51.694;10.006;2022-08-23T11:34:08;99695.34;;;28.25;30.16
66430;BME280;53242;51.694;10.006;2022-08-23T11:36:33;99695.19;;;28.21;29.71
66430;BME280;53242;51.694;10.006;2022-08-23T11:43:43;99683.06;;;28.27;28.92
66430;BME280;53242;51.694;10.006;2022-08-23T11:48:37;99675.25;;;28.48;29.66
66430;BME280;53242;51.694;10.006;2022-08-23T12:05:17;99673.06;;;28.82;28.06
66430;BME280;53242;51.694;10.006;2022-08-23T12:16:25;99681.94;;;28.74;26.97
66430;BME280;53242;51.694;10.006;2022-08-23T12:23:45;99668.00;;;28.98;27.36
66430;BME280;53242;51.694;10.006;2022-08-23T12:28:51;99668.59;;;28.86;27.49
66430;BME280;53242;51.694;10.006;2022-08-23T12:39:26;99663.00;;;28.82;26.95
66430;BME280;53242;51.694;10.006;2022-08-23T12:41:56;99662.53;;;28.80;27.16
66430;BME280;53242;51.694;10.006;2022-08-23T12:44:23;99662.53;;;28.89;27.09
66430;BME280;53242;51.694;10.006;2022-08-23T12:46:47;99663.03;;;28.91;27.36
66430;BME280;53242;51.694;10.006;2022-08-23T12:49:31;99655.16;;;28.81;26.59
66430;BME280;53242;51.694;10.006;2022-08-23T12:51:57;99650.19;;;28.74;26.90
66430;BME280;53242;51.694;10.006;2022-08-23T12:54:22;99649.28;;;28.87;26.91
66430;BME280;53242;51.694;10.006;2022-08-23T12:56:47;99657.47;;;28.96;27.21
66430;BME280;53242;51.694;10.006;2022-08-23T13:01:50;99649.44;;;28.91;26.71
66430;BME280;53242;51.694;10.006;2022-08-23T13:04:14;99650.25;;;28.92;26.94
66430;BME280;53242;51.694;10.006;2022-08-23T13:06:45;99653.09;;;28.86;26.50
66430;BME280;53242;51.694;10.006;2022-08-23T13:09:26;99648.13;;;28.80;25.91
66430;BME280;53242;51.694;10.006;2022-08-23T13:11:49;99636.19;;;28.90;26.73
66430;BME280;53242;51.694;10.006;2022-08-23T13:14:24;99636.06;;;29.03;27.05
66430;BME280;53242;51.694;10.006;2022-08-23T13:17:57;99651.56;;;29.03;26.37
66430;BME280;53242;51.694;10.006;2022-08-23T13:20:15;99641.34;;;29.00;26.10
66430;BME280;53242;51.694;10.006;2022-08-23T13:34:52;99635.59;;;29.01;26.26
66430;BME280;53242;51.694;10.006;2022-08-23T13:37:28;99640.38;;;28.96;26.32
66430;BME280;53242;51.694;10.006;2022-08-23T13:39:53;99629.22;;;29.06;26.28
66430;BME280;53242;51.694;10.006;2022-08-23T13:42:28;99639.25;;;29.06;25.80
66430;BME280;53242;51.694;10.006;2022-08-23T13:44:53;99638.78;;;29.03;26.01
66430;BME280;53242;51.694;10.006;2022-08-23T13:47:24;99639.22;;;28.97;25.99
66430;BME280;53242;51.694;10.006;2022-08-23T13:49:49;99639.22;;;28.97;26.16
66430;BME280;53242;51.694;10.006;2022-08-23T13:52:12;99636.84;;;28.95;26.08
66430;BME280;53242;51.694;10.006;2022-08-23T13:54:35;99626.94;;;28.99;25.88
66430;BME280;53242;51.694;10.006;2022-08-23T13:57:04;99623.78;;;29.06;26.42
66430;BME280;53242;51.694;10.006;2022-08-23T13:59:31;99620.13;;;29.19;26.42
66430;BME280;53242;51.694;10.006;2022-08-23T14:01:55;99628.63;;;29.27;26.25
66430;BME280;53242;51.694;10.006;2022-08-23T14:04:18;99624.50;;;29.29;26.45
66430;BME280;53242;51.694;10.006;2022-08-23T14:06:40;99624.00;;;29.27;26.35
66430;BME280;53242;51.694;10.006;2022-08-23T14:09:03;99618.38;;;29.24;25.94
66430;BME280;53242;51.694;10.006;2022-08-23T14:11:27;99621.31;;;29.36;25.85
66430;BME280;53242;51.694;10.006;2022-08-23T14:13:50;99613.78;;;29.42;25.78
66430;BME280;53242;51.694;10.006;2022-08-23T14:16:26;99604.69;;;29.38;25.58
66430;BME280;53242;51.694;10.006;2022-08-23T14:18:49;99612.84;;;29.38;25.71
66430;BME280;53242;51.694;10.006;2022-08-23T14:21:11;99608.69;;;29.40;25.74
66430;BME280;53242;51.694;10.006;2022-08-23T14:23:34;99610.75;;;29.34;25.73
66430;BME280;53242;51.694;10.006;2022-08-23T14:25:56;99606.25;;;29.30;25.87
66430;BME280;53242;51.694;10.006;2022-08-23T14:28:21;99603.81;;;29.19;26.06
66430;BME280;53242;51.694;10.006;2022-08-23T14:30:45;99600.50;;;29.31;26.13
66430;BME280;53242;51.694;10.006;2022-08-23T14:33:09;99601.00;;;29.42;26.34
66430;BME280;53242;51.694;10.006;2022-08-23T14:35:31;99613.50;;;29.43;26.34
66430;BME280;53242;51.694;10.006;2022-08-23T14:37:54;99611.72;;;29.47;25.84
66430;BME280;53242;51.694;10.006;2022-08-23T14:40:16;99604.88;;;29.50;26.28
66430;BME280;53242;51.694;10.006;2022-08-23T14:42:39;99606.44;;;29.42;25.91
66430;BME280;53242;51.694;10.006;2022-08-23T14:45:02;99611.72;;;29.39;25.95
66430;BME280;53242;51.694;10.006;2022-08-23T14:47:25;99601.28;;;29.23;25.76
66430;BME280;53242;51.694;10.006;2022-08-23T14:49:48;99603.19;;;29.14;25.92